Time;durP1;ratioP1;P1;durP2;ratioP2;P2;SDS_P1;SDS_P2;PMS_P1;PMS_P2;Temp;Humidity;BMP_temperature;BMP_pressure;BME280_temperature;BME280_humidity;BME280_pressure;Samples;Min_cycle;Max_cycle;Signal;HPM_P1;HPM_P2
2024/01/28 00:01:32;;;;;;;17.75;3.70;;;;;;;7.20;77.95;103251.59;4952051;28;97363;-70
2024/01/28 00:03:58;;;;;;;21.08;3.90;;;;;;;6.96;78.86;103251.09;4953738;28;98530;-70
2024/01/28 00:06:25;;;;;;;18.75;3.80;;;;;;;7.05;78.85;103240.78;4959104;28;98876;-71
2024/01/28 00:08:52;;;;;;;18.13;3.92;;;;;;;7.15;77.93;103241.84;4954716;28;98939;-71
2024/01/28 00:11:19;;;;;;;23.50;3.17;;;;;;;7.00;78.59;103246.81;4953850;28;97324;-70
2024/01/28 00:13:45;;;;;;;23.08;3.60;;;;;;;7.31;77.60;103250.88;4953992;28;97537;-69
2024/01/28 00:16:14;;;;;;;13.43;3.25;;;;;;;7.48;75.95;103242.41;4953737;28;98505;-68
2024/01/28 00:18:40;;;;;;;17.52;3.78;;;;;;;7.75;74.89;103239.34;4955355;28;99130;-70
2024/01/28 00:21:07;;;;;;;22.95;4.20;;;;;;;7.50;75.29;103240.69;4955932;28;97940;-69
2024/01/28 00:23:33;;;;;;;27.98;5.63;;;;;;;7.23;76.49;103242.84;4953394;28;97775;-69
2024/01/28 00:26:02;;;;;;;18.00;3.55;;;;;;;7.31;76.09;103238.63;4949696;28;98964;-69
2024/01/28 00:28:28;;;;;;;21.48;3.78;;;;;;;7.33;75.92;103236.91;4953079;28;99204;-70
2024/01/28 00:30:55;;;;;;;19.65;3.42;;;;;;;7.34;76.33;103233.41;4949145;28;97045;-70
2024/01/28 00:33:21;;;;;;;26.88;3.60;;;;;;;7.49;75.56;103245.91;4945090;28;96939;-69
2024/01/28 00:35:48;;;;;;;17.63;4.07;;;;;;;7.21;76.16;103244.59;4953132;28;99328;-69
2024/01/28 00:38:14;;;;;;;23.33;4.00;;;;;;;7.51;75.37;103247.72;4954641;28;98994;-69
2024/01/28 00:40:40;;;;;;;19.50;3.58;;;;;;;7.62;74.78;103242.63;4950403;28;97042;-70
2024/01/28 00:43:08;;;;;;;25.83;3.35;;;;;;;7.48;74.77;103246.81;4952142;28;97560;-70
2024/01/28 00:45:34;;;;;;;18.45;3.22;;;;;;;7.43;74.80;103243.19;4952706;28;98870;-70
2024/01/28 00:48:01;;;;;;;17.20;3.40;;;;;;;7.30;75.95;103247.34;4951874;28;98176;-69
2024/01/28 00:50:27;;;;;;;24.10;4.32;;;;;;;7.48;74.98;103242.41;4950615;28;97129;-68
2024/01/28 00:52:53;;;;;;;21.42;3.67;;;;;;;7.36;75.07;103251.84;4951950;28;96849;-69
2024/01/28 00:55:19;;;;;;;18.55;3.20;;;;;;;7.20;75.48;103242.81;4951902;28;98840;-69
2024/01/28 00:57:46;;;;;;;20.17;3.80;;;;;;;7.50;74.76;103245.06;4953042;28;98224;-68
2024/01/28 01:00:15;;;;;;;27.63;4.88;;;;;;;7.22;75.42;103244.59;4951498;28;97374;-70
2024/01/28 01:02:41;;;;;;;19.60;3.60;;;;;;;7.14;76.22;103246.22;4945640;28;98513;-69
2024/01/28 01:05:08;;;;;;;21.35;3.97;;;;;;;7.22;75.51;103248.09;4951934;28;101671;-70
2024/01/28 01:07:34;;;;;;;25.42;4.38;;;;;;;7.32;75.17;103253.53;4951229;28;101782;-69
2024/01/28 01:10:00;;;;;;;24.30;4.30;;;;;;;7.04;76.52;103254.78;4951470;28;97982;-69
2024/01/28 01:12:27;;;;;;;26.00;4.30;;;;;;;7.06;76.42;103249.56;4949637;28;96896;-70
2024/01/28 01:14:53;;;;;;;18.65;4.88;;;;;;;7.22;75.62;103243.69;4949170;28;102582;-70
2024/01/28 01:17:20;;;;;;;19.75;3.72;;;;;;;7.29;75.18;103252.59;4949393;28;98863;-70
2024/01/28 01:19:47;;;;;;;21.05;4.45;;;;;;;7.50;74.19;103245.06;4950704;28;97551;-70
2024/01/28 01:22:14;;;;;;;23.20;4.07;;;;;;;7.41;74.40;103245.81;4946630;28;97051;-70
2024/01/28 01:24:40;;;;;;;21.67;3.85;;;;;;;7.45;73.74;103233.59;4949126;28;98815;-70
2024/01/28 01:27:07;;;;;;;26.73;4.30;;;;;;;7.50;73.65;103242.44;4951769;28;98016;-69
2024/01/28 01:29:34;;;;;;;23.45;4.32;;;;;;;7.68;72.83;103245.38;4952033;28;96800;-70
2024/01/28 01:32:00;;;;;;;18.55;4.10;;;;;;;7.75;72.39;103246.34;4947534;28;97407;-69
2024/01/28 01:34:28;;;;;;;17.55;4.35;;;;;;;7.83;71.94;103248.25;4951274;28;97882;-69
2024/01/28 01:36:54;;;;;;;19.30;3.75;;;;;;;7.77;72.51;103249.91;4951586;28;98976;-69
2024/01/28 01:39:21;;;;;;;16.20;4.00;;;;;;;7.55;72.51;103246.03;4948558;28;96822;-69
2024/01/28 01:41:47;;;;;;;21.65;4.80;;;;;;;7.54;72.92;103246.91;4950403;28;97045;-69
2024/01/28 01:44:14;;;;;;;20.75;3.88;;;;;;;7.47;73.54;103248.56;4952392;28;99142;-69
2024/01/28 01:46:42;;;;;;;16.90;3.40;;;;;;;7.30;74.03;103262.25;4953123;28;97768;-69
2024/01/28 01:49:09;;;;;;;13.15;3.53;;;;;;;7.43;73.24;103254.59;4949035;28;97307;-69
2024/01/28 01:51:36;;;;;;;14.10;3.95;;;;;;;7.42;73.21;103259.84;4957784;28;97359;-69
2024/01/28 01:54:03;;;;;;;29.30;4.38;;;;;;;7.37;72.91;103257.13;4949640;28;97738;-69
2024/01/28 01:56:32;;;;;;;16.65;3.80;;;;;;;7.35;73.16;103258.84;4948321;28;98822;-70
2024/01/28 01:58:59;;;;;;;21.85;3.95;;;;;;;7.45;72.71;103252.00;4950408;28;98776;-68
2024/01/28 02:01:27;;;;;;;17.10;3.58;;;;;;;7.30;73.34;103259.63;4948359;28;98945;-69
2024/01/28 02:03:54;;;;;;;23.25;4.20;;;;;;;7.33;73.11;103263.22;4949720;28;98123;-69
2024/01/28 02:06:20;;;;;;;15.68;3.90;;;;;;;7.11;73.15;103254.03;4949302;28;97523;-69
2024/01/28 02:08:48;;;;;;;18.02;4.30;;;;;;;7.08;73.66;103255.75;4949698;28;98330;-71
2024/01/28 02:11:15;;;;;;;17.13;3.75;;;;;;;6.89;74.52;103249.25;4950307;28;97175;-70
2024/01/28 02:13:42;;;;;;;17.27;5.35;;;;;;;6.95;74.26;103245.84;4947782;28;101848;-70
2024/01/28 02:16:08;;;;;;;22.50;4.05;;;;;;;6.99;74.35;103239.78;4944856;28;98952;-70
2024/01/28 02:18:35;;;;;;;13.35;3.78;;;;;;;7.01;74.15;103243.34;4949661;28;97254;-71
2024/01/28 02:21:01;;;;;;;25.10;3.88;;;;;;;7.01;73.50;103249.47;4948487;28;97119;-70
2024/01/28 02:23:29;;;;;;;23.25;5.07;;;;;;;7.12;73.43;103234.78;4949174;28;98057;-69
2024/01/28 02:25:55;;;;;;;13.85;3.42;;;;;;;6.98;73.66;103238.00;4947525;28;98816;-69
2024/01/28 02:28:22;;;;;;;17.70;3.58;;;;;;;6.90;74.00;103236.97;4948477;28;97382;-69
2024/01/28 02:30:49;;;;;;;16.50;3.92;;;;;;;6.96;73.80;103237.06;4948409;28;98470;-69
2024/01/28 02:33:15;;;;;;;18.17;3.80;;;;;;;7.13;73.23;103239.19;4944650;28;98915;-69
2024/01/28 02:35:41;;;;;;;17.33;3.75;;;;;;;7.33;72.56;103231.66;4947348;28;98813;-69
2024/01/28 02:38:08;;;;;;;17.08;3.38;;;;;;;7.10;72.53;103232.97;4947529;28;96866;-70
2024/01/28 02:40:35;;;;;;;18.73;3.92;;;;;;;6.92;73.06;103235.25;4947906;28;97507;-69
2024/01/28 02:43:03;;;;;;;30.30;4.55;;;;;;;7.03;72.84;103226.72;4948483;28;99296;-69
2024/01/28 02:45:30;;;;;;;21.55;3.75;;;;;;;7.22;72.43;103227.91;4946652;28;98946;-69
2024/01/28 02:47:57;;;;;;;13.90;3.25;;;;;;;7.18;71.95;103231.38;4950315;28;97111;-69
2024/01/28 02:50:23;;;;;;;14.90;3.35;;;;;;;7.16;72.18;103230.44;4931421;28;97601;-69
2024/01/28 02:52:50;;;;;;;17.38;4.43;;;;;;;7.22;72.31;103228.81;4947825;28;99102;-70
2024/01/28 02:55:16;;;;;;;25.80;4.75;;;;;;;6.92;72.99;103227.38;4945019;28;99207;-70
2024/01/28 02:57:44;;;;;;;17.05;4.13;;;;;;;7.34;72.04;103233.41;4946575;28;97374;-70
2024/01/28 03:00:11;;;;;;;15.65;4.05;;;;;;;7.16;71.81;103233.06;4945547;28;97373;-69
2024/01/28 03:02:39;;;;;;;23.65;3.83;;;;;;;7.26;71.79;103229.75;4947863;28;99003;-70
2024/01/28 03:05:06;;;;;;;18.50;3.80;;;;;;;7.25;71.60;103227.09;4950232;28;98451;-70
2024/01/28 03:07:32;;;;;;;17.23;4.18;;;;;;;7.22;71.80;103224.44;4945422;28;98970;-70
2024/01/28 03:10:00;;;;;;;24.63;4.45;;;;;;;7.04;72.17;103232.84;4945330;28;97477;-70
2024/01/28 03:12:26;;;;;;;18.50;4.05;;;;;;;6.98;72.31;103233.63;4947884;28;98923;-71
2024/01/28 03:14:54;;;;;;;14.02;3.85;;;;;;;6.98;72.43;103236.25;4952060;28;99531;-70
2024/01/28 03:17:21;;;;;;;18.42;3.53;;;;;;;6.91;72.67;103233.47;4947664;28;99250;-70
2024/01/28 03:19:47;;;;;;;22.42;4.18;;;;;;;6.76;72.63;103236.72;4946079;28;99206;-70
2024/01/28 03:22:14;;;;;;;23.63;4.47;;;;;;;6.58;73.64;103231.97;4944442;28;100572;-69
2024/01/28 03:24:40;;;;;;;19.50;3.97;;;;;;;6.59;73.72;103235.47;4945607;28;98791;-69
2024/01/28 03:27:07;;;;;;;16.95;4.13;;;;;;;6.55;74.38;103231.91;4947954;28;96890;-70
2024/01/28 03:29:33;;;;;;;16.45;4.22;;;;;;;6.42;74.70;103236.88;4949453;28;96853;-69
2024/01/28 03:32:02;;;;;;;29.92;5.07;;;;;;;6.34;74.74;103227.09;4946894;28;98802;-68
2024/01/28 03:34:28;;;;;;;14.50;4.53;;;;;;;6.27;74.95;103227.81;4948463;28;101498;-69
2024/01/28 03:36:55;;;;;;;18.08;4.43;;;;;;;6.24;74.93;103227.75;4945642;28;97909;-69
2024/01/28 03:39:21;;;;;;;25.10;5.43;;;;;;;6.28;74.93;103226.97;4943623;28;98204;-69
2024/01/28 03:41:48;;;;;;;20.23;4.35;;;;;;;6.14;75.41;103230.16;4937853;28;98899;-69
2024/01/28 03:44:19;;;;;;;18.55;3.95;;;;;;;5.94;75.87;103219.19;4949018;28;98045;-69
2024/01/28 03:46:45;;;;;;;27.27;4.70;;;;;;;6.22;75.41;103223.34;4947397;28;97757;-69
2024/01/28 03:49:13;;;;;;;18.42;4.30;;;;;;;6.12;75.44;103211.72;4946156;28;97658;-69
2024/01/28 03:51:39;;;;;;;19.02;4.07;;;;;;;6.43;74.66;103221.16;4942158;28;100681;-71
2024/01/28 03:54:06;;;;;;;19.80;4.13;;;;;;;6.23;74.78;103223.38;4947276;28;98962;-70
2024/01/28 03:56:34;;;;;;;19.50;4.38;;;;;;;6.24;74.94;103214.63;4947432;28;97459;-70
2024/01/28 03:59:00;;;;;;;15.30;4.65;;;;;;;6.34;74.32;103215.72;4945601;28;96815;-70
2024/01/28 04:01:31;;;;;;;27.20;4.97;;;;;;;6.20;75.46;103219.78;4948366;28;97887;-70
2024/01/28 04:03:57;;;;;;;21.10;4.78;;;;;;;6.04;75.42;103217.69;4945182;28;98611;-70
2024/01/28 04:06:25;;;;;;;17.10;4.05;;;;;;;6.05;75.75;103215.06;4946322;28;97139;-69
2024/01/28 04:08:54;;;;;;;20.42;4.43;;;;;;;6.04;75.98;103215.06;4948416;28;97561;-70
2024/01/28 04:11:23;;;;;;;17.25;3.88;;;;;;;6.09;75.21;103216.03;4944103;28;98771;-69
2024/01/28 04:13:50;;;;;;;29.30;4.25;;;;;;;6.26;75.04;103212.03;4948239;28;97743;-70
2024/01/28 04:16:16;;;;;;;19.50;5.40;;;;;;;6.14;75.47;103220.53;4944200;28;98524;-71
2024/01/28 04:18:43;;;;;;;18.08;4.03;;;;;;;6.31;74.72;103219.16;4947100;28;97735;-70
2024/01/28 04:21:09;;;;;;;24.85;4.72;;;;;;;6.49;73.88;103221.28;4945318;28;98171;-69
2024/01/28 04:23:39;;;;;;;22.52;4.50;;;;;;;6.56;73.32;103209.16;4950240;28;98763;-69
2024/01/28 04:26:05;;;;;;;21.85;4.07;;;;;;;6.73;73.44;103213.88;4952894;28;96886;-69
2024/01/28 04:28:32;;;;;;;20.90;4.32;;;;;;;6.63;73.18;103219.81;4953870;28;97664;-69
2024/01/28 04:30:58;;;;;;;18.88;4.50;;;;;;;6.72;72.36;103217.38;4949873;28;100845;-69
2024/01/28 04:33:25;;;;;;;17.85;4.70;;;;;;;6.47;72.80;103217.75;4954259;28;97752;-69
2024/01/28 04:35:52;;;;;;;22.00;5.38;;;;;;;6.19;74.19;103213.63;4952348;28;96811;-69
2024/01/28 04:38:18;;;;;;;13.15;4.13;;;;;;;6.01;75.06;103218.50;4955641;28;101021;-69
2024/01/28 04:40:46;;;;;;;24.50;4.75;;;;;;;6.08;75.60;103217.78;4949276;28;99885;-69
2024/01/28 04:43:12;;;;;;;19.38;4.82;;;;;;;6.10;75.69;103223.06;4949817;28;98795;-69
2024/01/28 04:45:39;;;;;;;24.08;5.15;;;;;;;5.83;75.44;103221.56;4953629;28;100248;-69
2024/01/28 04:48:07;;;;;;;13.52;3.60;;;;;;;5.85;75.11;103222.47;4951717;28;97868;-69
2024/01/28 04:50:33;;;;;;;23.83;4.55;;;;;;;5.85;77.23;103224.19;4951318;28;99612;-69
2024/01/28 04:52:59;;;;;;;20.73;4.57;;;;;;;6.23;75.80;103222.47;4949353;28;98910;-68
2024/01/28 04:55:26;;;;;;;30.73;5.00;;;;;;;6.09;75.53;103229.16;4955999;28;97490;-69
2024/01/28 04:57:54;;;;;;;18.38;4.57;;;;;;;6.23;75.36;103227.75;4951997;28;97910;-69
2024/01/28 05:00:21;;;;;;;17.02;4.25;;;;;;;5.86;76.55;103226.84;4953417;28;99007;-69
2024/01/28 05:02:47;;;;;;;19.48;4.22;;;;;;;5.97;75.77;103227.16;4955046;28;98750;-68
2024/01/28 05:05:14;;;;;;;18.85;4.82;;;;;;;5.98;75.85;103242.91;4950542;28;97100;-68
2024/01/28 05:07:40;;;;;;;28.15;5.30;;;;;;;5.72;76.48;103235.25;4951451;28;96891;-68
2024/01/28 05:10:08;;;;;;;21.73;4.50;;;;;;;5.75;77.35;103241.47;4951414;28;101061;-69
2024/01/28 05:12:36;;;;;;;21.80;4.63;;;;;;;5.89;76.30;103242.72;4950085;28;99338;-69
2024/01/28 05:15:06;;;;;;;22.80;5.85;;;;;;;5.77;76.10;103241.53;4955374;28;97801;-71
2024/01/28 05:17:32;;;;;;;19.80;4.35;;;;;;;5.55;77.46;103245.34;4952118;28;98309;-68
2024/01/28 05:19:59;;;;;;;16.15;4.50;;;;;;;5.54;77.20;103249.69;4951411;28;98864;-68
2024/01/28 05:22:25;;;;;;;23.67;4.93;;;;;;;5.47;78.50;103245.16;4942227;28;98875;-68
2024/01/28 05:24:54;;;;;;;20.90;5.35;;;;;;;5.77;76.58;103252.91;4951172;28;98755;-67
2024/01/28 05:27:20;;;;;;;20.73;4.25;;;;;;;5.71;76.49;103251.88;4949078;28;97274;-68
2024/01/28 05:29:47;;;;;;;21.25;4.90;;;;;;;5.88;76.52;103253.19;4952949;28;98898;-70
2024/01/28 05:32:15;;;;;;;20.42;4.22;;;;;;;5.91;76.31;103259.38;4944233;28;97440;-69
2024/01/28 05:34:41;;;;;;;17.35;4.20;;;;;;;5.60;76.15;103257.72;4952472;28;96878;-69
2024/01/28 05:37:09;;;;;;;25.35;5.20;;;;;;;5.69;76.58;103259.69;4949596;28;97038;-69
2024/01/28 05:39:36;;;;;;;23.38;4.93;;;;;;;5.77;75.96;103257.25;4949423;28;98903;-69
2024/01/28 05:42:03;;;;;;;22.77;3.88;;;;;;;5.97;75.40;103263.91;4943711;28;99233;-70
2024/01/28 05:44:29;;;;;;;17.50;4.07;;;;;;;6.00;75.50;103277.06;4950624;28;97204;-71
2024/01/28 05:46:55;;;;;;;23.23;4.65;;;;;;;5.86;75.88;103267.94;4954002;28;97348;-70
2024/01/28 05:49:23;;;;;;;21.48;4.68;;;;;;;5.94;75.36;103266.44;4951873;28;99615;-70
2024/01/28 05:51:50;;;;;;;19.17;4.60;;;;;;;5.93;75.11;103255.06;4948986;28;101125;-70
2024/01/28 05:54:16;;;;;;;20.10;4.20;;;;;;;5.96;75.16;103263.00;4949868;28;97023;-70
2024/01/28 05:56:43;;;;;;;18.13;4.45;;;;;;;5.84;75.58;103272.31;4947201;28;98888;-70
2024/01/28 05:59:09;;;;;;;17.15;4.30;;;;;;;5.93;75.57;103276.06;4952865;28;99188;-70
2024/01/28 06:01:36;;;;;;;17.33;4.72;;;;;;;5.77;75.81;103266.03;4940860;28;99256;-70
2024/01/28 06:04:02;;;;;;;28.30;4.95;;;;;;;5.91;75.21;103269.88;4950041;28;97658;-70
2024/01/28 06:06:30;;;;;;;14.13;4.18;;;;;;;5.89;74.49;103266.34;4952052;28;96823;-70
2024/01/28 06:08:56;;;;;;;20.60;4.10;;;;;;;5.85;74.79;103267.06;4946242;28;99013;-70
2024/01/28 06:11:23;;;;;;;13.70;3.47;;;;;;;5.74;75.11;103273.81;4948532;28;98366;-70
2024/01/28 06:13:49;;;;;;;14.80;3.75;;;;;;;5.85;74.98;103269.69;4947555;28;96990;-71
2024/01/28 06:16:15;;;;;;;19.20;4.55;;;;;;;5.79;75.17;103269.53;4949772;28;98302;-71
2024/01/28 06:18:43;;;;;;;17.60;4.63;;;;;;;5.65;75.21;103272.66;4953470;28;99221;-71
2024/01/28 06:21:10;;;;;;;12.65;3.55;;;;;;;5.75;75.27;103274.69;4955343;28;98904;-71
2024/01/28 06:23:38;;;;;;;21.65;5.45;;;;;;;5.80;74.88;103271.31;4951355;28;98506;-71
2024/01/28 06:26:04;;;;;;;16.00;3.97;;;;;;;5.80;74.47;103268.69;4950745;28;99289;-72
2024/01/28 06:28:31;;;;;;;18.55;4.53;;;;;;;5.72;74.61;103266.72;4951260;28;102325;-69
2024/01/28 06:30:57;;;;;;;15.30;3.97;;;;;;;5.65;75.05;103265.69;4945260;28;98805;-70
2024/01/28 06:33:24;;;;;;;17.42;3.80;;;;;;;5.54;75.43;103260.19;4949544;28;96738;-68
2024/01/28 06:35:50;;;;;;;17.88;4.15;;;;;;;5.66;74.74;103253.47;4953718;28;97243;-70
2024/01/28 06:38:18;;;;;;;16.80;3.55;;;;;;;5.39;75.41;103259.78;4947815;28;99426;-70
2024/01/28 06:40:46;;;;;;;13.45;3.80;;;;;;;5.55;74.90;103261.09;4951946;28;98857;-69
2024/01/28 06:43:12;;;;;;;13.45;4.00;;;;;;;5.64;74.67;103269.19;4946007;28;97055;-69
2024/01/28 06:45:39;;;;;;;15.23;4.03;;;;;;;5.48;75.61;103264.41;4946190;28;97048;-70
2024/01/28 06:48:06;;;;;;;14.48;3.40;;;;;;;5.33;76.58;103264.88;4945461;28;99727;-70
2024/01/28 06:50:32;;;;;;;16.15;4.45;;;;;;;5.50;75.46;103257.47;4947624;28;99735;-70
2024/01/28 06:53:01;;;;;;;17.65;4.50;;;;;;;5.42;75.56;103267.75;4945212;28;97169;-70
2024/01/28 06:55:27;;;;;;;13.68;3.72;;;;;;;5.46;75.57;103268.69;4948038;28;97220;-69
2024/01/28 06:57:55;;;;;;;20.38;4.28;;;;;;;5.46;74.86;103269.59;4944101;28;97626;-70
2024/01/28 07:00:22;;;;;;;17.77;4.38;;;;;;;5.32;75.81;103272.69;4947714;28;99322;-70
2024/01/28 07:02:49;;;;;;;17.40;4.28;;;;;;;5.42;75.98;103261.63;4946929;28;97043;-70
2024/01/28 07:05:15;;;;;;;15.95;3.92;;;;;;;5.50;75.44;103255.72;4947828;28;99050;-69
2024/01/28 07:07:42;;;;;;;21.30;5.07;;;;;;;5.46;75.04;103258.22;4949835;28;99054;-69
2024/01/28 07:10:09;;;;;;;17.83;6.05;;;;;;;5.56;74.86;103260.25;4947985;28;97326;-71
2024/01/28 07:12:35;;;;;;;18.92;4.32;;;;;;;5.55;74.36;103268.94;4947313;28;97098;-69
2024/01/28 07:15:04;;;;;;;15.95;4.13;;;;;;;5.59;74.73;103268.16;4948328;28;96912;-69
2024/01/28 07:17:30;;;;;;;23.75;5.07;;;;;;;5.50;75.08;103265.34;4948166;28;100320;-70
2024/01/28 07:19:57;;;;;;;23.88;5.32;;;;;;;5.73;74.30;103261.53;4950064;28;99198;-71
2024/01/28 07:22:23;;;;;;;17.20;4.88;;;;;;;5.63;74.10;103270.03;4947392;28;99083;-69
2024/01/28 07:24:49;;;;;;;25.02;4.72;;;;;;;5.56;74.82;103266.38;4943888;28;97685;-70
2024/01/28 07:27:16;;;;;;;20.90;5.03;;;;;;;5.50;74.76;103268.84;4946551;28;99683;-70
2024/01/28 07:29:44;;;;;;;16.42;4.97;;;;;;;5.54;75.08;103265.44;4946505;28;101256;-70
2024/01/28 07:32:13;;;;;;;20.00;5.20;;;;;;;5.71;74.65;103257.13;4948259;28;96833;-70
2024/01/28 07:34:39;;;;;;;19.70;4.57;;;;;;;5.66;74.66;103254.34;4948271;28;98158;-70
2024/01/28 07:37:06;;;;;;;15.25;4.90;;;;;;;5.72;74.45;103257.13;4948589;28;101422;-69
2024/01/28 07:39:32;;;;;;;19.33;5.95;;;;;;;5.56;74.84;103253.25;4946736;28;97499;-69
2024/01/28 07:41:59;;;;;;;19.17;5.63;;;;;;;5.52;75.07;103251.38;4948134;28;96810;-70
2024/01/28 07:44:25;;;;;;;19.45;5.28;;;;;;;5.57;74.85;103262.03;4947460;28;97641;-69
2024/01/28 07:46:52;;;;;;;20.23;5.93;;;;;;;5.60;74.90;103272.56;4945613;28;97576;-69
2024/01/28 07:49:20;;;;;;;23.10;5.60;;;;;;;5.72;74.67;103261.47;4948849;28;97592;-70
2024/01/28 07:51:46;;;;;;;21.33;5.65;;;;;;;5.64;74.21;103269.19;4948320;28;96823;-69
2024/01/28 07:54:13;;;;;;;18.73;5.60;;;;;;;5.86;74.47;103263.59;4947731;28;97633;-70
2024/01/28 07:56:39;;;;;;;19.40;6.00;;;;;;;5.90;74.12;103260.25;4945811;28;99337;-71
2024/01/28 07:59:06;;;;;;;22.73;6.05;;;;;;;6.02;73.74;103264.00;4949977;28;97621;-70
2024/01/28 08:01:32;;;;;;;20.00;5.82;;;;;;;6.11;73.24;103258.94;4950127;28;97182;-69
2024/01/28 08:03:58;;;;;;;21.73;5.10;;;;;;;6.32;72.13;103260.31;4950944;28;96863;-69
2024/01/28 08:06:27;;;;;;;33.72;5.90;;;;;;;6.27;72.06;103261.97;4950843;28;97566;-69
2024/01/28 08:08:53;;;;;;;21.88;5.88;;;;;;;6.38;71.22;103262.19;4951120;28;97540;-70
2024/01/28 08:11:20;;;;;;;20.25;5.40;;;;;;;6.44;72.06;103259.69;4951968;28;98719;-69
2024/01/28 08:13:48;;;;;;;21.98;6.38;;;;;;;6.65;71.08;103259.25;4948380;28;98025;-70
2024/01/28 08:16:15;;;;;;;18.20;5.97;;;;;;;6.66;70.52;103274.16;4952450;28;98805;-69
2024/01/28 08:18:42;;;;;;;20.95;6.43;;;;;;;6.73;70.35;103273.44;4950145;28;99338;-70
2024/01/28 08:21:08;;;;;;;18.20;5.63;;;;;;;6.72;70.13;103262.03;4951264;28;96781;-69
2024/01/28 08:23:36;;;;;;;13.55;5.25;;;;;;;6.79;70.64;103268.31;4953360;28;97074;-69
2024/01/28 08:26:02;;;;;;;32.17;7.22;;;;;;;6.94;69.71;103252.84;4951915;28;98901;-70
2024/01/28 08:28:29;;;;;;;19.55;5.93;;;;;;;6.74;70.36;103248.94;4954863;28;98921;-70
2024/01/28 08:30:55;;;;;;;25.08;6.45;;;;;;;6.78;70.08;103258.63;4951559;28;97542;-70
2024/01/28 08:33:21;;;;;;;21.23;7.65;;;;;;;6.60;70.05;103263.53;4951747;28;96905;-69
2024/01/28 08:35:48;;;;;;;21.65;5.85;;;;;;;6.59;70.08;103252.13;4954965;28;97808;-70
2024/01/28 08:38:14;;;;;;;26.50;6.82;;;;;;;6.95;69.50;103259.00;4951321;28;98888;-69
2024/01/28 08:40:42;;;;;;;17.25;6.05;;;;;;;7.24;68.71;103263.03;4948784;28;97529;-67
2024/01/28 08:43:08;;;;;;;25.73;5.78;;;;;;;7.57;67.75;103279.41;4946533;28;97673;-70
2024/01/28 08:45:36;;;;;;;20.75;6.70;;;;;;;7.58;67.00;103280.28;4947859;28;99061;-70
2024/01/28 08:48:02;;;;;;;20.55;6.03;;;;;;;7.60;66.44;103282.09;4950380;28;98794;-70
2024/01/28 08:50:29;;;;;;;20.52;6.25;;;;;;;7.61;66.22;103275.97;4936354;28;98857;-70
2024/01/28 08:52:55;;;;;;;24.10;7.75;;;;;;;7.57;66.66;103281.16;4945141;28;97036;-70
2024/01/28 08:55:22;;;;;;;23.02;6.60;;;;;;;7.71;66.00;103291.91;4950565;28;99010;-70
2024/01/28 08:57:49;;;;;;;26.92;6.65;;;;;;;7.59;66.01;103296.13;4946858;28;99355;-70
2024/01/28 09:00:16;;;;;;;25.08;6.03;;;;;;;7.87;65.37;103276.41;4944465;28;98050;-70
2024/01/28 09:02:43;;;;;;;25.10;6.90;;;;;;;7.94;65.50;103270.34;4948779;28;98688;-70
2024/01/28 09:05:10;;;;;;;21.35;6.03;;;;;;;8.00;65.18;103261.69;4949676;28;98909;-71
2024/01/28 09:07:36;;;;;;;18.42;6.43;;;;;;;7.94;65.16;103258.97;4948414;28;100658;-70
2024/01/28 09:10:03;;;;;;;19.25;6.55;;;;;;;7.81;65.28;103254.38;4947448;28;97382;-71
2024/01/28 09:12:29;;;;;;;25.38;6.90;;;;;;;8.17;64.58;103249.63;4947590;28;99247;-70
2024/01/28 09:14:57;;;;;;;25.27;7.18;;;;;;;8.35;63.42;103265.72;4948274;28;99777;-70
2024/01/28 09:17:23;;;;;;;20.33;6.40;;;;;;;8.23;63.42;103276.06;4951477;28;99671;-70
2024/01/28 09:19:50;;;;;;;19.60;5.85;;;;;;;8.35;63.13;103270.97;4944877;28;97262;-69
2024/01/28 09:22:16;;;;;;;15.45;5.85;;;;;;;8.49;62.63;103268.53;4943166;28;97074;-69
2024/01/28 09:24:42;;;;;;;20.02;6.28;;;;;;;8.34;63.42;103255.16;4932797;28;101444;-71
2024/01/28 09:27:10;;;;;;;19.63;6.00;;;;;;;8.40;63.04;103258.75;4933834;28;99848;-70
2024/01/28 09:29:38;;;;;;;17.55;6.05;;;;;;;8.46;63.27;103270.25;4929723;28;98656;-71
2024/01/28 09:32:06;;;;;;;17.92;5.80;;;;;;;8.64;62.46;103266.09;4948984;28;97098;-69
2024/01/28 09:34:32;;;;;;;22.02;6.53;;;;;;;8.88;61.78;103268.13;4942815;28;99128;-72
2024/01/28 09:36:59;;;;;;;26.02;6.60;;;;;;;8.94;61.32;103281.38;4950118;28;99923;-70
2024/01/28 09:39:28;;;;;;;23.10;6.65;;;;;;;9.09;60.81;103276.28;4947728;28;96801;-70
2024/01/28 09:42:01;;;;;;;25.35;6.03;;;;;;;9.38;60.39;103288.91;4949471;28;98161;-70
2024/01/28 09:44:30;;;;;;;24.20;5.88;;;;;;;9.48;59.55;103290.75;4948287;28;98192;-71
2024/01/28 09:46:57;;;;;;;24.05;6.00;;;;;;;9.42;59.43;103288.94;4949676;28;98894;-70
2024/01/28 09:49:25;;;;;;;22.08;5.53;;;;;;;9.20;59.82;103279.03;4946502;28;97098;-71
2024/01/28 09:51:51;;;;;;;23.02;5.43;;;;;;;9.36;59.97;103264.25;4945078;28;96900;-69
2024/01/28 09:54:18;;;;;;;26.13;5.70;;;;;;;9.42;60.03;103261.66;4948106;28;99143;-69
2024/01/28 09:56:45;;;;;;;21.15;6.10;;;;;;;9.74;59.53;103254.00;4942359;28;98994;-70
2024/01/28 09:59:15;;;;;;;23.30;5.35;;;;;;;9.79;58.84;103249.63;4940137;28;98507;-70
2024/01/28 10:01:43;;;;;;;21.65;5.30;;;;;;;9.68;58.73;103249.56;4952812;28;96850;-72
2024/01/28 10:04:10;;;;;;;21.67;5.30;;;;;;;9.63;58.49;103251.31;4948110;28;98965;-70
2024/01/28 10:06:38;;;;;;;19.10;5.47;;;;;;;9.72;58.63;103250.47;4949039;28;100589;-70
2024/01/28 10:09:05;;;;;;;18.17;5.15;;;;;;;9.82;58.26;103249.69;4941350;28;98543;-70
2024/01/28 10:11:31;;;;;;;15.50;4.20;;;;;;;10.06;57.11;103254.22;4950036;28;97028;-70
2024/01/28 10:13:58;;;;;;;20.58;4.72;;;;;;;9.91;56.86;103255.88;4947199;28;97929;-70
2024/01/28 10:16:24;;;;;;;24.58;5.32;;;;;;;9.99;56.92;103250.66;4950277;28;99052;-70
2024/01/28 10:18:51;;;;;;;24.00;4.50;;;;;;;10.00;57.09;103247.16;4946330;28;97121;-70
2024/01/28 10:21:17;;;;;;;13.60;4.63;;;;;;;10.15;56.61;103243.72;4942396;28;98468;-70
2024/01/28 10:23:45;;;;;;;18.92;4.90;;;;;;;10.38;56.23;103248.28;4949047;28;98917;-70
2024/01/28 10:26:11;;;;;;;18.27;5.28;;;;;;;10.51;55.85;103249.22;4948800;28;101303;-70
2024/01/28 10:28:38;;;;;;;16.60;4.80;;;;;;;10.69;55.41;103246.69;4950796;28;97574;-70
2024/01/28 10:31:05;;;;;;;12.40;4.38;;;;;;;10.65;55.79;103239.59;4948721;28;97098;-69
2024/01/28 10:33:34;;;;;;;20.55;4.75;;;;;;;10.66;55.67;103241.38;4948520;28;99279;-69
2024/01/28 10:36:04;;;;;;;19.83;4.90;;;;;;;10.49;55.53;103228.97;4949725;28;99187;-70
2024/01/28 10:38:32;;;;;;;16.10;4.97;;;;;;;10.52;55.61;103228.97;4942041;28;97467;-70
2024/01/28 10:41:01;;;;;;;18.00;4.35;;;;;;;10.58;54.90;103227.22;4951893;28;97715;-69
2024/01/28 10:43:31;;;;;;;17.45;5.28;;;;;;;10.74;54.88;103228.16;4947376;28;99043;-70
2024/01/28 10:46:01;;;;;;;19.15;4.95;;;;;;;10.72;54.83;103233.44;4947531;28;97771;-70
2024/01/28 10:48:32;;;;;;;18.33;4.07;;;;;;;10.94;54.26;103225.59;4945494;28;98729;-69
2024/01/28 10:51:00;;;;;;;17.70;4.60;;;;;;;10.83;53.92;103224.69;4947263;28;96903;-69
2024/01/28 10:53:29;;;;;;;15.20;4.25;;;;;;;10.61;54.60;103211.38;4948587;28;98133;-70
2024/01/28 10:55:56;;;;;;;11.82;3.45;;;;;;;10.48;55.22;103217.50;4950147;28;99264;-70
2024/01/28 10:58:24;;;;;;;24.65;4.03;;;;;;;10.49;55.62;103213.09;4947424;28;97937;-69
2024/01/28 11:00:50;;;;;;;22.27;4.47;;;;;;;10.65;55.29;103212.25;4945884;28;97110;-70
2024/01/28 11:03:17;;;;;;;20.92;3.90;;;;;;;10.70;54.57;103198.19;4939572;28;98979;-70
2024/01/28 11:05:44;;;;;;;17.38;3.83;;;;;;;10.85;54.61;103204.38;4949696;28;98997;-70
2024/01/28 11:08:11;;;;;;;19.45;4.32;;;;;;;10.81;54.03;103199.97;4949699;28;97792;-69
2024/01/28 11:10:37;;;;;;;12.15;3.70;;;;;;;10.61;55.17;103200.81;4946440;28;98431;-70
2024/01/28 11:13:06;;;;;;;12.27;3.72;;;;;;;10.78;54.74;103204.38;4946292;28;99068;-70
2024/01/28 11:15:34;;;;;;;13.82;3.35;;;;;;;10.91;54.42;103200.00;4944293;28;98916;-71
2024/01/28 11:18:01;;;;;;;21.75;4.13;;;;;;;11.10;53.96;103195.59;4945827;28;97636;-71
2024/01/28 11:20:30;;;;;;;13.45;3.97;;;;;;;11.02;53.73;103182.41;4947360;28;97486;-71
2024/01/28 11:22:58;;;;;;;20.83;4.40;;;;;;;10.99;53.96;103185.03;4946874;28;99366;-71